sensor_id;sensor_type;location;lat;lon;timestamp;temperature;humidity
12841;DHT22;6487;48.626;12.486;2023-03-04T00:01:57;3.10;99.90
12841;DHT22;6487;48.626;12.486;2023-03-04T00:04:25;3.00;99.90
12841;DHT22;6487;48.626;12.486;2023-03-04T00:06:55;3.00;99.90
12841;DHT22;6487;48.626;12.486;2023-03-04T00:09:23;3.00;99.90
12841;DHT22;6487;48.626;12.486;2023-03-04T00:11:52;3.00;99.90
12841;DHT22;6487;48.626;12.486;2023-03-04T00:14:21;3.00;99.80
12841;DHT22;6487;48.626;12.486;2023-03-04T00:16:49;2.90;99.90
12841;DHT22;6487;48.626;12.486;2023-03-04T00:19:18;2.90;99.90
12841;DHT22;6487;48.626;12.486;2023-03-04T00:21:46;2.90;99.70
12841;DHT22;6487;48.626;12.486;2023-03-04T00:24:16;2.90;99.50
12841;DHT22;6487;48.626;12.486;2023-03-04T00:26:44;2.90;99.70
12841;DHT22;6487;48.626;12.486;2023-03-04T00:29:12;2.80;99.90
12841;DHT22;6487;48.626;12.486;2023-03-04T00:31:41;2.90;99.60
12841;DHT22;6487;48.626;12.486;2023-03-04T00:34:21;2.80;99.80
12841;DHT22;6487;48.626;12.486;2023-03-04T00:36:49;2.70;99.80
12841;DHT22;6487;48.626;12.486;2023-03-04T00:39:19;2.70;99.90
12841;DHT22;6487;48.626;12.486;2023-03-04T00:41:47;2.70;99.70
12841;DHT22;6487;48.626;12.486;2023-03-04T00:44:16;2.80;99.60
12841;DHT22;6487;48.626;12.486;2023-03-04T00:46:44;2.70;99.50
12841;DHT22;6487;48.626;12.486;2023-03-04T00:49:12;2.80;99.50
12841;DHT22;6487;48.626;12.486;2023-03-04T00:51:41;2.80;99.40
12841;DHT22;6487;48.626;12.486;2023-03-04T00:54:09;2.70;99.10
12841;DHT22;6487;48.626;12.486;2023-03-04T00:56:39;2.70;99.20
12841;DHT22;6487;48.626;12.486;2023-03-04T00:59:07;2.70;99.10
12841;DHT22;6487;48.626;12.486;2023-03-04T01:01:35;2.70;99.00
12841;DHT22;6487;48.626;12.486;2023-03-04T01:04:04;2.70;99.10
12841;DHT22;6487;48.626;12.486;2023-03-04T01:06:32;2.70;99.10
12841;DHT22;6487;48.626;12.486;2023-03-04T01:09:00;2.60;98.90
12841;DHT22;6487;48.626;12.486;2023-03-04T01:11:29;2.70;98.80
12841;DHT22;6487;48.626;12.486;2023-03-04T01:13:58;2.70;98.60
12841;DHT22;6487;48.626;12.486;2023-03-04T01:16:26;2.60;98.80
12841;DHT22;6487;48.626;12.486;2023-03-04T01:18:55;2.60;98.90
12841;DHT22;6487;48.626;12.486;2023-03-04T01:21:23;2.60;98.90
12841;DHT22;6487;48.626;12.486;2023-03-04T01:23:51;2.50;98.70
12841;DHT22;6487;48.626;12.486;2023-03-04T01:26:19;2.50;98.80
12841;DHT22;6487;48.626;12.486;2023-03-04T01:28:48;2.50;98.70
12841;DHT22;6487;48.626;12.486;2023-03-04T01:31:18;2.50;98.70
12841;DHT22;6487;48.626;12.486;2023-03-04T01:33:46;2.50;98.50
12841;DHT22;6487;48.626;12.486;2023-03-04T01:36:14;2.40;98.60
12841;DHT22;6487;48.626;12.486;2023-03-04T01:38:43;2.40;98.70
12841;DHT22;6487;48.626;12.486;2023-03-04T01:41:12;2.30;98.90
12841;DHT22;6487;48.626;12.486;2023-03-04T01:43:50;2.30;99.00
12841;DHT22;6487;48.626;12.486;2023-03-04T01:46:20;2.30;98.90
12841;DHT22;6487;48.626;12.486;2023-03-04T01:48:49;2.30;98.90
12841;DHT22;6487;48.626;12.486;2023-03-04T01:51:19;2.30;98.90
12841;DHT22;6487;48.626;12.486;2023-03-04T01:53:49;2.30;98.80
12841;DHT22;6487;48.626;12.486;2023-03-04T01:56:22;2.30;98.60
12841;DHT22;6487;48.626;12.486;2023-03-04T01:59:07;2.30;98.60
12841;DHT22;6487;48.626;12.486;2023-03-04T02:01:40;2.20;98.60
12841;DHT22;6487;48.626;12.486;2023-03-04T02:04:11;2.10;98.70
12841;DHT22;6487;48.626;12.486;2023-03-04T02:06:40;2.10;98.70
12841;DHT22;6487;48.626;12.486;2023-03-04T02:09:09;2.10;98.70
12841;DHT22;6487;48.626;12.486;2023-03-04T02:11:38;2.10;98.70
12841;DHT22;6487;48.626;12.486;2023-03-04T02:14:07;2.00;98.80
12841;DHT22;6487;48.626;12.486;2023-03-04T02:16:38;2.00;98.80
12841;DHT22;6487;48.626;12.486;2023-03-04T02:19:11;2.00;98.70
12841;DHT22;6487;48.626;12.486;2023-03-04T02:21:41;2.00;98.70
12841;DHT22;6487;48.626;12.486;2023-03-04T02:24:14;2.00;98.80
12841;DHT22;6487;48.626;12.486;2023-03-04T02:26:46;1.90;98.90
12841;DHT22;6487;48.626;12.486;2023-03-04T02:29:16;1.90;99.10
12841;DHT22;6487;48.626;12.486;2023-03-04T02:31:46;1.90;98.90
12841;DHT22;6487;48.626;12.486;2023-03-04T02:34:18;1.90;99.00
12841;DHT22;6487;48.626;12.486;2023-03-04T02:36:48;1.90;98.90
12841;DHT22;6487;48.626;12.486;2023-03-04T02:39:26;1.80;99.10
12841;DHT22;6487;48.626;12.486;2023-03-04T02:41:57;1.80;99.50
12841;DHT22;6487;48.626;12.486;2023-03-04T02:44:29;1.70;99.70
12841;DHT22;6487;48.626;12.486;2023-03-04T02:46:58;1.80;99.40
12841;DHT22;6487;48.626;12.486;2023-03-04T02:49:29;1.70;99.40
12841;DHT22;6487;48.626;12.486;2023-03-04T02:52:00;1.70;99.20
12841;DHT22;6487;48.626;12.486;2023-03-04T02:54:30;1.70;99.30
12841;DHT22;6487;48.626;12.486;2023-03-04T02:57:01;1.70;99.20
12841;DHT22;6487;48.626;12.486;2023-03-04T02:59:31;1.70;99.20
12841;DHT22;6487;48.626;12.486;2023-03-04T03:01:59;1.60;99.10
12841;DHT22;6487;48.626;12.486;2023-03-04T03:04:28;1.60;99.20
12841;DHT22;6487;48.626;12.486;2023-03-04T03:06:56;1.60;99.10
12841;DHT22;6487;48.626;12.486;2023-03-04T03:09:25;1.60;99.20
12841;DHT22;6487;48.626;12.486;2023-03-04T03:11:53;1.50;99.10
12841;DHT22;6487;48.626;12.486;2023-03-04T03:14:22;1.50;99.20
12841;DHT22;6487;48.626;12.486;2023-03-04T03:16:51;1.50;99.10
12841;DHT22;6487;48.626;12.486;2023-03-04T03:19:19;1.50;99.10
12841;DHT22;6487;48.626;12.486;2023-03-04T03:21:47;1.50;99.20
12841;DHT22;6487;48.626;12.486;2023-03-04T03:24:16;1.40;99.10
12841;DHT22;6487;48.626;12.486;2023-03-04T03:26:45;1.50;99.20
12841;DHT22;6487;48.626;12.486;2023-03-04T03:29:14;1.40;99.20
12841;DHT22;6487;48.626;12.486;2023-03-04T03:31:43;1.40;99.20
12841;DHT22;6487;48.626;12.486;2023-03-04T03:34:12;1.40;99.30
12841;DHT22;6487;48.626;12.486;2023-03-04T03:36:40;1.30;99.30
12841;DHT22;6487;48.626;12.486;2023-03-04T03:39:08;1.30;99.20
12841;DHT22;6487;48.626;12.486;2023-03-04T03:41:37;1.30;99.20
12841;DHT22;6487;48.626;12.486;2023-03-04T03:44:05;1.40;99.10
12841;DHT22;6487;48.626;12.486;2023-03-04T03:46:33;1.30;99.30
12841;DHT22;6487;48.626;12.486;2023-03-04T03:49:03;1.20;99.00
12841;DHT22;6487;48.626;12.486;2023-03-04T03:51:31;1.20;99.10
12841;DHT22;6487;48.626;12.486;2023-03-04T03:53:59;1.20;99.50
12841;DHT22;6487;48.626;12.486;2023-03-04T03:56:28;1.20;99.20
12841;DHT22;6487;48.626;12.486;2023-03-04T03:58:56;1.10;98.90
12841;DHT22;6487;48.626;12.486;2023-03-04T04:01:25;1.10;98.90
12841;DHT22;6487;48.626;12.486;2023-03-04T04:03:54;1.10;99.10
12841;DHT22;6487;48.626;12.486;2023-03-04T04:06:24;1.10;99.20
12841;DHT22;6487;48.626;12.486;2023-03-04T04:08:52;1.10;99.30
12841;DHT22;6487;48.626;12.486;2023-03-04T04:11:21;1.00;99.10
12841;DHT22;6487;48.626;12.486;2023-03-04T04:13:49;1.00;99.10
12841;DHT22;6487;48.626;12.486;2023-03-04T04:16:17;1.10;99.30
12841;DHT22;6487;48.626;12.486;2023-03-04T04:18:45;1.00;99.20
12841;DHT22;6487;48.626;12.486;2023-03-04T04:21:14;1.00;99.20
12841;DHT22;6487;48.626;12.486;2023-03-04T04:23:44;1.00;99.10
12841;DHT22;6487;48.626;12.486;2023-03-04T04:26:12;1.00;99.30
12841;DHT22;6487;48.626;12.486;2023-03-04T04:28:41;1.00;99.50
12841;DHT22;6487;48.626;12.486;2023-03-04T04:31:09;0.90;99.40
12841;DHT22;6487;48.626;12.486;2023-03-04T04:33:37;0.90;99.30
12841;DHT22;6487;48.626;12.486;2023-03-04T04:36:08;0.90;99.20
12841;DHT22;6487;48.626;12.486;2023-03-04T04:38:37;0.90;99.30
12841;DHT22;6487;48.626;12.486;2023-03-04T04:41:16;0.90;99.10
12841;DHT22;6487;48.626;12.486;2023-03-04T04:43:47;0.90;99.00
12841;DHT22;6487;48.626;12.486;2023-03-04T04:46:16;0.80;99.20
12841;DHT22;6487;48.626;12.486;2023-03-04T04:48:45;0.80;99.40
12841;DHT22;6487;48.626;12.486;2023-03-04T04:51:14;0.70;99.20
12841;DHT22;6487;48.626;12.486;2023-03-04T04:53:42;0.70;99.20
12841;DHT22;6487;48.626;12.486;2023-03-04T04:56:14;0.70;99.10
12841;DHT22;6487;48.626;12.486;2023-03-04T04:58:46;0.70;99.30
12841;DHT22;6487;48.626;12.486;2023-03-04T05:01:15;0.70;99.30
12841;DHT22;6487;48.626;12.486;2023-03-04T05:03:43;0.60;99.20
12841;DHT22;6487;48.626;12.486;2023-03-04T05:06:12;0.70;99.20
12841;DHT22;6487;48.626;12.486;2023-03-04T05:08:40;0.60;99.40
12841;DHT22;6487;48.626;12.486;2023-03-04T05:11:09;0.60;99.40
12841;DHT22;6487;48.626;12.486;2023-03-04T05:13:39;0.60;99.40
12841;DHT22;6487;48.626;12.486;2023-03-04T05:16:07;0.60;99.50
12841;DHT22;6487;48.626;12.486;2023-03-04T05:18:36;0.60;99.50
12841;DHT22;6487;48.626;12.486;2023-03-04T05:21:05;0.60;99.60
12841;DHT22;6487;48.626;12.486;2023-03-04T05:23:36;0.60;99.60
12841;DHT22;6487;48.626;12.486;2023-03-04T05:26:06;0.60;99.60
12841;DHT22;6487;48.626;12.486;2023-03-04T05:28:35;0.50;99.60
12841;DHT22;6487;48.626;12.486;2023-03-04T05:31:04;0.60;99.60
12841;DHT22;6487;48.626;12.486;2023-03-04T05:33:33;0.60;99.50
12841;DHT22;6487;48.626;12.486;2023-03-04T05:36:02;0.50;99.50
12841;DHT22;6487;48.626;12.486;2023-03-04T05:38:31;0.50;99.50
12841;DHT22;6487;48.626;12.486;2023-03-04T05:41:00;0.50;99.50
12841;DHT22;6487;48.626;12.486;2023-03-04T05:43:30;0.50;99.40
12841;DHT22;6487;48.626;12.486;2023-03-04T05:46:00;0.50;99.50
12841;DHT22;6487;48.626;12.486;2023-03-04T05:48:30;0.50;99.60
12841;DHT22;6487;48.626;12.486;2023-03-04T05:51:00;0.40;99.30
12841;DHT22;6487;48.626;12.486;2023-03-04T05:53:28;0.50;99.50
12841;DHT22;6487;48.626;12.486;2023-03-04T05:55:57;0.40;99.20
12841;DHT22;6487;48.626;12.486;2023-03-04T05:58:25;0.40;99.50
12841;DHT22;6487;48.626;12.486;2023-03-04T06:00:53;0.30;99.50
12841;DHT22;6487;48.626;12.486;2023-03-04T06:03:22;0.30;99.30
12841;DHT22;6487;48.626;12.486;2023-03-04T06:05:54;0.30;99.50
12841;DHT22;6487;48.626;12.486;2023-03-04T06:08:22;0.30;99.50
12841;DHT22;6487;48.626;12.486;2023-03-04T06:10:52;0.30;99.60
12841;DHT22;6487;48.626;12.486;2023-03-04T06:13:22;0.30;99.80
12841;DHT22;6487;48.626;12.486;2023-03-04T06:15:53;0.30;99.90
12841;DHT22;6487;48.626;12.486;2023-03-04T06:18:23;0.30;99.80
12841;DHT22;6487;48.626;12.486;2023-03-04T06:20:56;0.30;99.90
12841;DHT22;6487;48.626;12.486;2023-03-04T06:23:25;0.30;99.90
12841;DHT22;6487;48.626;12.486;2023-03-04T06:25:56;0.40;99.90
12841;DHT22;6487;48.626;12.486;2023-03-04T06:28:25;0.40;99.90
12841;DHT22;6487;48.626;12.486;2023-03-04T06:30:55;0.50;99.90
12841;DHT22;6487;48.626;12.486;2023-03-04T06:33:24;0.40;99.90
12841;DHT22;6487;48.626;12.486;2023-03-04T06:35:54;0.50;99.90
12841;DHT22;6487;48.626;12.486;2023-03-04T06:38:24;0.50;99.90
12841;DHT22;6487;48.626;12.486;2023-03-04T06:40:53;0.50;99.90
12841;DHT22;6487;48.626;12.486;2023-03-04T06:43:23;0.60;99.90
12841;DHT22;6487;48.626;12.486;2023-03-04T06:45:51;0.50;99.90
12841;DHT22;6487;48.626;12.486;2023-03-04T06:48:19;0.60;99.90
12841;DHT22;6487;48.626;12.486;2023-03-04T06:50:48;0.70;99.90
12841;DHT22;6487;48.626;12.486;2023-03-04T06:53:17;0.70;99.90
12841;DHT22;6487;48.626;12.486;2023-03-04T06:55:46;0.80;99.90
12841;DHT22;6487;48.626;12.486;2023-03-04T06:58:15;0.80;99.90
12841;DHT22;6487;48.626;12.486;2023-03-04T07:00:44;0.90;99.90
12841;DHT22;6487;48.626;12.486;2023-03-04T07:03:12;0.90;99.90
12841;DHT22;6487;48.626;12.486;2023-03-04T07:05:41;0.90;99.90
12841;DHT22;6487;48.626;12.486;2023-03-04T07:08:10;1.00;99.90
12841;DHT22;6487;48.626;12.486;2023-03-04T07:10:40;1.00;99.90
12841;DHT22;6487;48.626;12.486;2023-03-04T07:13:08;1.20;99.90
12841;DHT22;6487;48.626;12.486;2023-03-04T07:15:36;1.20;99.90
12841;DHT22;6487;48.626;12.486;2023-03-04T07:18:05;1.40;99.90
12841;DHT22;6487;48.626;12.486;2023-03-04T07:20:33;1.40;99.90
12841;DHT22;6487;48.626;12.486;2023-03-04T07:23:01;1.40;99.90
12841;DHT22;6487;48.626;12.486;2023-03-04T07:25:30;1.60;99.90
12841;DHT22;6487;48.626;12.486;2023-03-04T07:27:59;1.80;99.90
12841;DHT22;6487;48.626;12.486;2023-03-04T07:30:28;1.90;99.90
12841;DHT22;6487;48.626;12.486;2023-03-04T07:32:56;2.20;99.90
12841;DHT22;6487;48.626;12.486;2023-03-04T07:35:25;2.40;99.90
12841;DHT22;6487;48.626;12.486;2023-03-04T07:37:53;2.60;99.90
12841;DHT22;6487;48.626;12.486;2023-03-04T07:40:21;2.90;99.90
12841;DHT22;6487;48.626;12.486;2023-03-04T07:42:50;3.10;99.90
12841;DHT22;6487;48.626;12.486;2023-03-04T07:45:20;3.30;99.90
12841;DHT22;6487;48.626;12.486;2023-03-04T07:47:49;3.50;99.90
12841;DHT22;6487;48.626;12.486;2023-03-04T07:50:18;3.80;99.90
12841;DHT22;6487;48.626;12.486;2023-03-04T07:52:47;4.00;99.80
12841;DHT22;6487;48.626;12.486;2023-03-04T07:55:18;4.10;99.60
12841;DHT22;6487;48.626;12.486;2023-03-04T07:57:46;4.30;99.00
12841;DHT22;6487;48.626;12.486;2023-03-04T08:00:16;4.60;99.00
12841;DHT22;6487;48.626;12.486;2023-03-04T08:02:46;4.70;98.60
12841;DHT22;6487;48.626;12.486;2023-03-04T08:05:15;4.80;98.80
12841;DHT22;6487;48.626;12.486;2023-03-04T08:07:43;4.90;97.50
12841;DHT22;6487;48.626;12.486;2023-03-04T08:10:11;5.10;98.00
12841;DHT22;6487;48.626;12.486;2023-03-04T08:12:40;5.30;98.70
12841;DHT22;6487;48.626;12.486;2023-03-04T08:15:09;5.60;97.90
12841;DHT22;6487;48.626;12.486;2023-03-04T08:17:37;5.80;97.50
12841;DHT22;6487;48.626;12.486;2023-03-04T08:20:09;5.80;97.10
12841;DHT22;6487;48.626;12.486;2023-03-04T08:22:38;6.00;96.60
12841;DHT22;6487;48.626;12.486;2023-03-04T08:25:07;6.10;96.50
12841;DHT22;6487;48.626;12.486;2023-03-04T08:27:36;5.90;96.60
12841;DHT22;6487;48.626;12.486;2023-03-04T08:30:05;6.20;96.00
12841;DHT22;6487;48.626;12.486;2023-03-04T08:32:34;6.30;96.20
12841;DHT22;6487;48.626;12.486;2023-03-04T08:35:03;6.30;94.40
12841;DHT22;6487;48.626;12.486;2023-03-04T08:37:33;6.40;95.90
12841;DHT22;6487;48.626;12.486;2023-03-04T08:40:02;6.60;96.00
12841;DHT22;6487;48.626;12.486;2023-03-04T08:42:30;6.80;95.30
12841;DHT22;6487;48.626;12.486;2023-03-04T08:44:59;7.00;95.90
12841;DHT22;6487;48.626;12.486;2023-03-04T08:47:27;7.30;95.50
12841;DHT22;6487;48.626;12.486;2023-03-04T08:49:55;7.40;94.80
12841;DHT22;6487;48.626;12.486;2023-03-04T08:52:24;7.70;94.60
12841;DHT22;6487;48.626;12.486;2023-03-04T08:54:54;7.80;94.40
12841;DHT22;6487;48.626;12.486;2023-03-04T08:57:23;7.70;93.80
12841;DHT22;6487;48.626;12.486;2023-03-04T08:59:51;7.70;93.50
12841;DHT22;6487;48.626;12.486;2023-03-04T09:02:20;7.80;93.60
12841;DHT22;6487;48.626;12.486;2023-03-04T09:04:48;7.90;93.70
12841;DHT22;6487;48.626;12.486;2023-03-04T09:07:16;8.00;92.50
12841;DHT22;6487;48.626;12.486;2023-03-04T09:09:44;7.70;92.40
12841;DHT22;6487;48.626;12.486;2023-03-04T09:12:14;7.90;92.70
12841;DHT22;6487;48.626;12.486;2023-03-04T09:14:42;8.10;92.30
12841;DHT22;6487;48.626;12.486;2023-03-04T09:17:11;8.30;92.00
12841;DHT22;6487;48.626;12.486;2023-03-04T09:19:39;8.50;92.30
12841;DHT22;6487;48.626;12.486;2023-03-04T09:22:07;8.50;91.80
12841;DHT22;6487;48.626;12.486;2023-03-04T09:24:36;8.60;92.00
12841;DHT22;6487;48.626;12.486;2023-03-04T09:27:04;8.30;92.30
12841;DHT22;6487;48.626;12.486;2023-03-04T09:29:34;8.40;91.90
12841;DHT22;6487;48.626;12.486;2023-03-04T09:32:02;8.30;91.50
12841;DHT22;6487;48.626;12.486;2023-03-04T09:34:31;8.30;91.50
12841;DHT22;6487;48.626;12.486;2023-03-04T09:36:59;8.10;91.70
12841;DHT22;6487;48.626;12.486;2023-03-04T09:39:27;8.20;92.10
12841;DHT22;6487;48.626;12.486;2023-03-04T09:41:57;8.40;92.30
12841;DHT22;6487;48.626;12.486;2023-03-04T09:44:28;8.60;91.50
12841;DHT22;6487;48.626;12.486;2023-03-04T09:47:02;8.60;91.60
12841;DHT22;6487;48.626;12.486;2023-03-04T09:49:33;8.70;91.20
12841;DHT22;6487;48.626;12.486;2023-03-04T09:52:12;8.80;91.50
12841;DHT22;6487;48.626;12.486;2023-03-04T09:54:55;9.00;91.20
12841;DHT22;6487;48.626;12.486;2023-03-04T09:57:42;8.70;91.30
12841;DHT22;6487;48.626;12.486;2023-03-04T10:00:20;8.60;90.90
12841;DHT22;6487;48.626;12.486;2023-03-04T10:03:05;8.40;90.00
12841;DHT22;6487;48.626;12.486;2023-03-04T10:05:43;8.30;90.90
12841;DHT22;6487;48.626;12.486;2023-03-04T10:08:35;8.60;91.00
12841;DHT22;6487;48.626;12.486;2023-03-04T10:11:10;8.60;91.00
12841;DHT22;6487;48.626;12.486;2023-03-04T10:13:50;8.60;90.70
12841;DHT22;6487;48.626;12.486;2023-03-04T10:16:25;8.70;91.30
12841;DHT22;6487;48.626;12.486;2023-03-04T10:19:03;8.80;90.20
12841;DHT22;6487;48.626;12.486;2023-03-04T10:21:47;8.70;90.20
12841;DHT22;6487;48.626;12.486;2023-03-04T10:24:18;9.00;91.10
12841;DHT22;6487;48.626;12.486;2023-03-04T10:26:51;9.00;90.60
12841;DHT22;6487;48.626;12.486;2023-03-04T10:29:22;8.90;91.00
12841;DHT22;6487;48.626;12.486;2023-03-04T10:31:51;9.20;90.70
12841;DHT22;6487;48.626;12.486;2023-03-04T10:34:23;9.10;90.70
12841;DHT22;6487;48.626;12.486;2023-03-04T10:36:57;8.80;90.40
12841;DHT22;6487;48.626;12.486;2023-03-04T10:39:29;8.60;90.30
12841;DHT22;6487;48.626;12.486;2023-03-04T10:42:00;8.80;90.80
12841;DHT22;6487;48.626;12.486;2023-03-04T10:44:32;8.50;90.70
12841;DHT22;6487;48.626;12.486;2023-03-04T10:47:01;8.80;91.20
12841;DHT22;6487;48.626;12.486;2023-03-04T10:49:30;8.70;90.90
12841;DHT22;6487;48.626;12.486;2023-03-04T10:52:11;8.60;90.70
12841;DHT22;6487;48.626;12.486;2023-03-04T10:54:47;8.70;90.90
12841;DHT22;6487;48.626;12.486;2023-03-04T10:57:19;8.50;90.80
12841;DHT22;6487;48.626;12.486;2023-03-04T10:59:50;8.50;90.60
12841;DHT22;6487;48.626;12.486;2023-03-04T11:02:24;8.70;91.30
12841;DHT22;6487;48.626;12.486;2023-03-04T11:05:10;8.70;90.70
12841;DHT22;6487;48.626;12.486;2023-03-04T11:07:47;8.50;91.10
12841;DHT22;6487;48.626;12.486;2023-03-04T11:10:24;8.50;90.60
12841;DHT22;6487;48.626;12.486;2023-03-04T11:12:59;8.30;90.50
12841;DHT22;6487;48.626;12.486;2023-03-04T11:15:30;8.40;91.10
12841;DHT22;6487;48.626;12.486;2023-03-04T11:18:16;8.40;90.60
12841;DHT22;6487;48.626;12.486;2023-03-04T11:20:50;8.40;90.80
12841;DHT22;6487;48.626;12.486;2023-03-04T11:23:23;8.40;90.20
12841;DHT22;6487;48.626;12.486;2023-03-04T11:26:00;8.10;89.10
12841;DHT22;6487;48.626;12.486;2023-03-04T11:28:35;8.00;89.60
12841;DHT22;6487;48.626;12.486;2023-03-04T11:31:12;8.10;90.10
12841;DHT22;6487;48.626;12.486;2023-03-04T11:33:47;8.10;88.60
12841;DHT22;6487;48.626;12.486;2023-03-04T11:36:31;8.10;88.10
12841;DHT22;6487;48.626;12.486;2023-03-04T11:39:02;7.70;90.20
12841;DHT22;6487;48.626;12.486;2023-03-04T11:41:34;7.70;90.60
12841;DHT22;6487;48.626;12.486;2023-03-04T11:44:04;7.80;90.20
12841;DHT22;6487;48.626;12.486;2023-03-04T11:46:48;7.70;90.50
12841;DHT22;6487;48.626;12.486;2023-03-04T11:49:54;7.90;91.30
12841;DHT22;6487;48.626;12.486;2023-03-04T11:52:44;7.80;91.10
12841;DHT22;6487;48.626;12.486;2023-03-04T11:55:40;7.80;90.20
12841;DHT22;6487;48.626;12.486;2023-03-04T11:58:32;7.80;90.90
12841;DHT22;6487;48.626;12.486;2023-03-04T12:01:09;7.60;90.10
12841;DHT22;6487;48.626;12.486;2023-03-04T12:04:01;7.30;89.50
12841;DHT22;6487;48.626;12.486;2023-03-04T12:06:42;6.80;90.30
12841;DHT22;6487;48.626;12.486;2023-03-04T12:09:23;6.60;90.10
12841;DHT22;6487;48.626;12.486;2023-03-04T12:12:05;6.60;90.40
12841;DHT22;6487;48.626;12.486;2023-03-04T12:14:44;6.40;90.80
12841;DHT22;6487;48.626;12.486;2023-03-04T12:20:52;5.90;91.30
12841;DHT22;6487;48.626;12.486;2023-03-04T12:23:40;5.20;91.60
12841;DHT22;6487;48.626;12.486;2023-03-04T12:26:24;5.30;91.90
12841;DHT22;6487;48.626;12.486;2023-03-04T12:29:01;5.20;91.60
12841;DHT22;6487;48.626;12.486;2023-03-04T12:31:37;5.00;92.00
12841;DHT22;6487;48.626;12.486;2023-03-04T12:34:35;4.80;92.00
12841;DHT22;6487;48.626;12.486;2023-03-04T12:40:32;4.60;92.50
12841;DHT22;6487;48.626;12.486;2023-03-04T12:43:28;4.80;92.40
12841;DHT22;6487;48.626;12.486;2023-03-04T12:46:10;4.50;92.60
12841;DHT22;6487;48.626;12.486;2023-03-04T12:48:54;4.40;93.10
12841;DHT22;6487;48.626;12.486;2023-03-04T12:51:33;4.50;93.00
12841;DHT22;6487;48.626;12.486;2023-03-04T12:54:14;4.60;93.10
12841;DHT22;6487;48.626;12.486;2023-03-04T12:56:51;4.40;93.00
12841;DHT22;6487;48.626;12.486;2023-03-04T12:59:24;4.50;93.20
12841;DHT22;6487;48.626;12.486;2023-03-04T13:01:59;4.30;93.10
12841;DHT22;6487;48.626;12.486;2023-03-04T13:04:47;4.30;93.40
12841;DHT22;6487;48.626;12.486;2023-03-04T13:07:31;4.20;93.80
12841;DHT22;6487;48.626;12.486;2023-03-04T13:10:10;4.10;93.40
12841;DHT22;6487;48.626;12.486;2023-03-04T13:12:47;4.10;93.50
12841;DHT22;6487;48.626;12.486;2023-03-04T13:15:30;4.10;94.10
12841;DHT22;6487;48.626;12.486;2023-03-04T13:18:03;4.00;93.90
12841;DHT22;6487;48.626;12.486;2023-03-04T13:21:21;4.20;93.60
12841;DHT22;6487;48.626;12.486;2023-03-04T13:23:51;4.00;93.90
12841;DHT22;6487;48.626;12.486;2023-03-04T13:26:28;3.80;94.00
12841;DHT22;6487;48.626;12.486;2023-03-04T13:29:29;4.00;93.90
12841;DHT22;6487;48.626;12.486;2023-03-04T13:32:03;4.10;93.90
12841;DHT22;6487;48.626;12.486;2023-03-04T13:34:47;4.10;94.10
12841;DHT22;6487;48.626;12.486;2023-03-04T13:37:29;4.00;94.40
12841;DHT22;6487;48.626;12.486;2023-03-04T13:40:32;3.80;94.20
12841;DHT22;6487;48.626;12.486;2023-03-04T13:43:38;3.80;94.60
12841;DHT22;6487;48.626;12.486;2023-03-04T13:46:39;4.00;94.50
12841;DHT22;6487;48.626;12.486;2023-03-04T13:49:20;3.90;94.60
12841;DHT22;6487;48.626;12.486;2023-03-04T13:51:49;3.80;94.60
12841;DHT22;6487;48.626;12.486;2023-03-04T13:54:22;3.70;94.20
12841;DHT22;6487;48.626;12.486;2023-03-04T13:57:10;3.90;94.10
12841;DHT22;6487;48.626;12.486;2023-03-04T13:59:44;3.40;94.30
12841;DHT22;6487;48.626;12.486;2023-03-04T14:02:15;3.50;94.50
12841;DHT22;6487;48.626;12.486;2023-03-04T14:04:58;3.50;94.30
12841;DHT22;6487;48.626;12.486;2023-03-04T14:07:29;3.40;94.80
12841;DHT22;6487;48.626;12.486;2023-03-04T14:10:00;3.40;95.00
12841;DHT22;6487;48.626;12.486;2023-03-04T14:12:32;3.50;94.80
12841;DHT22;6487;48.626;12.486;2023-03-04T14:15:04;3.40;94.90
12841;DHT22;6487;48.626;12.486;2023-03-04T14:17:46;3.50;95.30
12841;DHT22;6487;48.626;12.486;2023-03-04T14:20:24;3.40;94.80
12841;DHT22;6487;48.626;12.486;2023-03-04T14:22:54;3.30;95.20
12841;DHT22;6487;48.626;12.486;2023-03-04T14:25:25;3.40;94.60
12841;DHT22;6487;48.626;12.486;2023-03-04T14:28:03;3.30;95.00
12841;DHT22;6487;48.626;12.486;2023-03-04T14:30:34;3.40;95.00
12841;DHT22;6487;48.626;12.486;2023-03-04T14:33:14;3.50;94.90
12841;DHT22;6487;48.626;12.486;2023-03-04T14:35:47;3.30;94.40
12841;DHT22;6487;48.626;12.486;2023-03-04T14:38:22;3.20;94.90
12841;DHT22;6487;48.626;12.486;2023-03-04T14:40:54;3.40;95.00
12841;DHT22;6487;48.626;12.486;2023-03-04T14:43:25;3.30;95.00
12841;DHT22;6487;48.626;12.486;2023-03-04T14:45:56;3.10;94.60
12841;DHT22;6487;48.626;12.486;2023-03-04T14:48:27;3.30;95.40
12841;DHT22;6487;48.626;12.486;2023-03-04T14:51:01;3.20;95.40
12841;DHT22;6487;48.626;12.486;2023-03-04T14:53:31;3.30;95.40
12841;DHT22;6487;48.626;12.486;2023-03-04T14:56:01;3.20;96.10
12841;DHT22;6487;48.626;12.486;2023-03-04T14:58:32;3.30;95.60
12841;DHT22;6487;48.626;12.486;2023-03-04T15:01:12;3.20;95.30
12841;DHT22;6487;48.626;12.486;2023-03-04T15:03:54;3.30;95.50
12841;DHT22;6487;48.626;12.486;2023-03-04T15:06:25;3.30;95.80
12841;DHT22;6487;48.626;12.486;2023-03-04T15:08:56;3.30;95.40
12841;DHT22;6487;48.626;12.486;2023-03-04T15:11:29;3.10;95.70
12841;DHT22;6487;48.626;12.486;2023-03-04T15:13:59;3.10;95.60
12841;DHT22;6487;48.626;12.486;2023-03-04T15:16:52;3.00;95.60
12841;DHT22;6487;48.626;12.486;2023-03-04T15:19:25;3.00;95.80
12841;DHT22;6487;48.626;12.486;2023-03-04T15:22:05;2.90;95.50
12841;DHT22;6487;48.626;12.486;2023-03-04T15:24:33;3.00;96.00
12841;DHT22;6487;48.626;12.486;2023-03-04T15:27:02;2.90;95.80
12841;DHT22;6487;48.626;12.486;2023-03-04T15:29:33;3.00;95.60
12841;DHT22;6487;48.626;12.486;2023-03-04T15:32:02;2.90;95.80
12841;DHT22;6487;48.626;12.486;2023-03-04T15:34:30;2.90;95.70
12841;DHT22;6487;48.626;12.486;2023-03-04T15:36:59;2.60;95.90
12841;DHT22;6487;48.626;12.486;2023-03-04T15:39:28;2.80;96.00
12841;DHT22;6487;48.626;12.486;2023-03-04T15:41:57;2.90;96.00
12841;DHT22;6487;48.626;12.486;2023-03-04T15:44:25;2.70;96.00
12841;DHT22;6487;48.626;12.486;2023-03-04T15:46:54;2.80;96.10
12841;DHT22;6487;48.626;12.486;2023-03-04T15:49:22;2.60;95.80
12841;DHT22;6487;48.626;12.486;2023-03-04T15:51:50;2.50;95.90
12841;DHT22;6487;48.626;12.486;2023-03-04T15:54:19;2.50;96.10
12841;DHT22;6487;48.626;12.486;2023-03-04T15:56:51;2.40;96.00
12841;DHT22;6487;48.626;12.486;2023-03-04T15:59:19;2.40;96.40
12841;DHT22;6487;48.626;12.486;2023-03-04T16:01:47;2.30;96.20
12841;DHT22;6487;48.626;12.486;2023-03-04T16:04:16;2.50;96.40
12841;DHT22;6487;48.626;12.486;2023-03-04T16:06:46;2.40;96.40
12841;DHT22;6487;48.626;12.486;2023-03-04T16:09:16;2.40;96.10
12841;DHT22;6487;48.626;12.486;2023-03-04T16:11:47;2.60;96.20
12841;DHT22;6487;48.626;12.486;2023-03-04T16:14:17;2.50;96.00
12841;DHT22;6487;48.626;12.486;2023-03-04T16:16:45;2.50;96.10
12841;DHT22;6487;48.626;12.486;2023-03-04T16:19:13;2.40;95.80
12841;DHT22;6487;48.626;12.486;2023-03-04T16:21:42;2.30;96.00
12841;DHT22;6487;48.626;12.486;2023-03-04T16:24:15;2.30;95.60